Manhattan — WDH4861 — position and weather

sailwx.info

Track history (hours):
 
Tides and Currents Weather Stations Pressure Air Temp Water Temp Dewpoint Dewpoint Depression Visibility Wind Speed Wind Dir Waves Ship Positions

Manhattan

Owner: NY WaterTours, New York, NY. More information available from US FCC via Universal Licensing System and Coast Guard Vessel Documentation Center.

Last reported at 2017-Dec-14 18:31 UTC. Time now 2017-Dec-15 06:11 UTC.
Position N 40°43' W 073°59'.

Type: Ship. MMSI: 367622140.

Date/timePositionNaut miles runAvg speedWind from/ knotsBaromVisibWave heightAir tempDewpointWater temp
2017-Dec-14 18:31N 40°43' W 073°59'2 4.0
2017-Dec-14 18:00N 40°42' W 074°02'2 3.8
2017-Dec-14 17:28N 40°43' W 073°59'1 1.8
2017-Dec-14 17:00N 40°42' W 074°00'2 3.1
2017-Dec-14 16:24N 40°43' W 074°02'0 0.0
2017-Dec-14 16:00N 40°43' W 074°02'2 0.1
2017-Dec-13 21:52N 40°41' W 074°01'2 4.5
2017-Dec-13 21:25N 40°43' W 073°59'3 6.7
2017-Dec-13 21:00N 40°41' W 074°02'3 5.3
2017-Dec-13 20:29N 40°43' W 073°59'0 0.0
2017-Dec-13 19:59N 40°43' W 073°59'2 4.3
2017-Dec-13 19:30N 40°42' W 074°02'2 3.9
2017-Dec-13 18:58N 40°43' W 073°59'0 0.1
2017-Dec-13 18:27N 40°43' W 073°59'2 4.8
2017-Dec-13 18:01N 40°42' W 074°02'2 3.8
2017-Dec-13 17:27N 40°43' W 073°59'2 3.8
2017-Dec-13 16:55N 40°41' W 074°01'0 0.0
2017-Dec-12 21:58N 40°41' W 074°01'2 4.1
2017-Dec-12 21:28N 40°43' W 073°59'3 6.1
2017-Dec-12 21:00N 40°41' W 074°02'3 3.8
2017-Dec-12 20:17N 40°43' W 073°59'0 0.1
2017-Dec-12 20:00N 40°43' W 073°59'2 4.1
2017-Dec-12 19:30N 40°42' W 074°02'2 3.1
2017-Dec-12 18:51N 40°43' W 073°59'0 0.0
2017-Dec-12 18:28N 40°43' W 073°59'3 5.8
2017-Dec-12 18:01N 40°41' W 074°02'3 5.1
2017-Dec-12 17:30N 40°43' W 073°59'1 1.3
2017-Dec-12 17:00N 40°42' W 073°60'2 3.9
2017-Dec-12 16:30N 40°43' W 074°02'0 0.0
2017-Dec-12 15:59N 40°43' W 074°02'2 0.1
2017-Dec-11 22:02N 40°41' W 074°01'0 2.1
2017-Dec-11 22:00N 40°41' W 074°01'2 3.8
2017-Dec-11 21:29N 40°43' W 073°59'2 5.3
2017-Dec-11 21:01N 40°42' W 074°02'2 4.2
2017-Dec-11 20:26N 40°43' W 073°59'0 0.0
2017-Dec-11 19:59N 40°43' W 073°59'3 5.4
2017-Dec-11 19:30N 40°42' W 074°02'3 4.6
2017-Dec-11 18:56N 40°43' W 073°59'0 0.0
2017-Dec-11 18:29N 40°43' W 073°59'2 5.1
2017-Dec-11 18:00N 40°42' W 074°02'2 4.8
2017-Dec-11 17:30N 40°43' W 073°59'0 0.5
2017-Dec-11 17:00N 40°42' W 073°59'2 0.1
2017-Dec-10 21:52N 40°41' W 074°01'2 5.2
2017-Dec-10 21:28N 40°43' W 073°59'3 6.3
2017-Dec-10 21:00N 40°41' W 074°03'3 5.7
2017-Dec-10 20:30N 40°43' W 073°59'1 1.1
2017-Dec-10 20:00N 40°42' W 073°60'1 2.6
2017-Dec-10 19:31N 40°43' W 074°01'2 3.0
2017-Dec-10 18:58N 40°43' W 073°59'0 0.0
2017-Dec-10 18:30N 40°43' W 073°59'2 4.8
2017-Dec-10 18:00N 40°42' W 074°02'2 4.0
2017-Dec-10 17:25N 40°43' W 073°59'0 0.0
2017-Dec-10 16:54N 40°43' W 073°59'3 6.4
2017-Dec-10 16:30N 40°43' W 074°02'0 0.0
2017-Dec-10 15:57N 40°43' W 074°02'2 4.7
2017-Dec-10 15:29N 40°41' W 074°01'0 0.0
2017-Dec-09 21:51N 40°41' W 074°01'2 5.5
2017-Dec-09 21:28N 40°43' W 073°59'2 4.3
2017-Dec-09 21:01N 40°42' W 074°01'2 3.8
2017-Dec-09 20:29N 40°43' W 073°59'0 0.0
2017-Dec-09 19:58N 40°43' W 073°59'2 4.6
2017-Dec-09 19:30N 40°42' W 074°02'2 3.8
2017-Dec-09 18:57N 40°43' W 073°59'0 0.0
2017-Dec-09 18:30N 40°43' W 073°59'3 5.3
2017-Dec-09 18:00N 40°41' W 074°02'3 4.9
2017-Dec-09 17:29N 40°43' W 073°59'1 2.9
2017-Dec-09 17:00N 40°42' W 074°00'1 0.0
2017-Dec-08 22:07N 40°41' W 074°01'0 1.6
2017-Dec-08 22:00N 40°41' W 074°01'2 3.6
2017-Dec-08 21:29N 40°43' W 073°59'2 4.8
2017-Dec-08 21:01N 40°42' W 074°02'2 4.2
2017-Dec-08 20:28N 40°43' W 073°59'0 0.4
2017-Dec-08 20:00N 40°43' W 073°59'3 5.5
2017-Dec-08 19:30N 40°41' W 074°02'3 3.4
2017-Dec-08 18:45N 40°43' W 073°59'0 0.5
2017-Dec-08 18:30N 40°42' W 073°59'2 4.9
2017-Dec-08 18:00N 40°41' W 074°02'2 4.1
2017-Dec-08 17:25N 40°43' W 073°59'0 0.1
2017-Dec-08 16:55N 40°43' W 073°59'3 5.7
2017-Dec-08 16:28N 40°43' W 074°02'0 0.5
2017-Dec-08 16:00N 40°43' W 074°02'2 0.1
2017-Dec-07 21:58N 40°41' W 074°01'2 4.2
2017-Dec-07 21:29N 40°43' W 073°59'3 6.1
2017-Dec-07 21:00N 40°41' W 074°03'3 5.2
2017-Dec-07 20:26N 40°43' W 073°59'0 0.2
2017-Dec-07 20:01N 40°43' W 073°59'3 5.2
2017-Dec-07 19:30N 40°42' W 074°02'3 4.8
2017-Dec-07 18:59N 40°43' W 073°59'0 0.0
2017-Dec-07 18:28N 40°43' W 073°59'3 6.0
2017-Dec-07 18:00N 40°41' W 074°02'3 5.4
2017-Dec-07 17:30N 40°43' W 073°59'0 0.1
2017-Dec-07 17:01N 40°43' W 073°59'2 3.6
2017-Dec-07 16:28N 40°41' W 074°01'0 0.0
2017-Dec-06 21:53N 40°41' W 074°01'2 5.2
2017-Dec-06 21:29N 40°43' W 073°59'3 6.1
2017-Dec-06 21:00N 40°41' W 074°02'  
Track history (hours):
 
Tides and Currents Weather Stations Pressure Air Temp Water Temp Dewpoint Dewpoint Depression Visibility Wind Speed Wind Dir Waves Ship Positions

Manhattan

Owner: NY WaterTours, New York, NY. More information available from US FCC via Universal Licensing System and Coast Guard Vessel Documentation Center.

Last reported at 2017-Dec-14 18:31 UTC. Time now 2017-Dec-15 06:11 UTC.
Position N 40°43' W 073°59'.

Type: Ship. MMSI: 367622140.

Date/timePositionNaut miles runAvg speedWind from/ knotsBaromVisibWave heightAir tempDewpointWater temp
2017-Dec-14 18:31N 40°43' W 073°59'2 4.0
2017-Dec-14 18:00N 40°42' W 074°02'2 3.8
2017-Dec-14 17:28N 40°43' W 073°59'1 1.8
2017-Dec-14 17:00N 40°42' W 074°00'2 3.1
2017-Dec-14 16:24N 40°43' W 074°02'0 0.0
2017-Dec-14 16:00N 40°43' W 074°02'2 0.1
2017-Dec-13 21:52N 40°41' W 074°01'2 4.5
2017-Dec-13 21:25N 40°43' W 073°59'3 6.7
2017-Dec-13 21:00N 40°41' W 074°02'3 5.3
2017-Dec-13 20:29N 40°43' W 073°59'0 0.0
2017-Dec-13 19:59N 40°43' W 073°59'2 4.3
2017-Dec-13 19:30N 40°42' W 074°02'2 3.9
2017-Dec-13 18:58N 40°43' W 073°59'0 0.1
2017-Dec-13 18:27N 40°43' W 073°59'2 4.8
2017-Dec-13 18:01N 40°42' W 074°02'2 3.8
2017-Dec-13 17:27N 40°43' W 073°59'2 3.8
2017-Dec-13 16:55N 40°41' W 074°01'0 0.0
2017-Dec-12 21:58N 40°41' W 074°01'2 4.1
2017-Dec-12 21:28N 40°43' W 073°59'3 6.1
2017-Dec-12 21:00N 40°41' W 074°02'3 3.8
2017-Dec-12 20:17N 40°43' W 073°59'0 0.1
2017-Dec-12 20:00N 40°43' W 073°59'2 4.1
2017-Dec-12 19:30N 40°42' W 074°02'2 3.1
2017-Dec-12 18:51N 40°43' W 073°59'0 0.0
2017-Dec-12 18:28N 40°43' W 073°59'3 5.8
2017-Dec-12 18:01N 40°41' W 074°02'3 5.1
2017-Dec-12 17:30N 40°43' W 073°59'1 1.3
2017-Dec-12 17:00N 40°42' W 073°60'2 3.9
2017-Dec-12 16:30N 40°43' W 074°02'0 0.0
2017-Dec-12 15:59N 40°43' W 074°02'2 0.1
2017-Dec-11 22:02N 40°41' W 074°01'0 2.1
2017-Dec-11 22:00N 40°41' W 074°01'2 3.8
2017-Dec-11 21:29N 40°43' W 073°59'2 5.3
2017-Dec-11 21:01N 40°42' W 074°02'2 4.2
2017-Dec-11 20:26N 40°43' W 073°59'0 0.0
2017-Dec-11 19:59N 40°43' W 073°59'3 5.4
2017-Dec-11 19:30N 40°42' W 074°02'3 4.6
2017-Dec-11 18:56N 40°43' W 073°59'0 0.0
2017-Dec-11 18:29N 40°43' W 073°59'2 5.1
2017-Dec-11 18:00N 40°42' W 074°02'2 4.8
2017-Dec-11 17:30N 40°43' W 073°59'0 0.5
2017-Dec-11 17:00N 40°42' W 073°59'2 0.1
2017-Dec-10 21:52N 40°41' W 074°01'2 5.2
2017-Dec-10 21:28N 40°43' W 073°59'3 6.3
2017-Dec-10 21:00N 40°41' W 074°03'3 5.7
2017-Dec-10 20:30N 40°43' W 073°59'1 1.1
2017-Dec-10 20:00N 40°42' W 073°60'1 2.6
2017-Dec-10 19:31N 40°43' W 074°01'2 3.0
2017-Dec-10 18:58N 40°43' W 073°59'0 0.0
2017-Dec-10 18:30N 40°43' W 073°59'2 4.8
2017-Dec-10 18:00N 40°42' W 074°02'2 4.0
2017-Dec-10 17:25N 40°43' W 073°59'0 0.0
2017-Dec-10 16:54N 40°43' W 073°59'3 6.4
2017-Dec-10 16:30N 40°43' W 074°02'0 0.0
2017-Dec-10 15:57N 40°43' W 074°02'2 4.7
2017-Dec-10 15:29N 40°41' W 074°01'0 0.0
2017-Dec-09 21:51N 40°41' W 074°01'2 5.5
2017-Dec-09 21:28N 40°43' W 073°59'2 4.3
2017-Dec-09 21:01N 40°42' W 074°01'2 3.8
2017-Dec-09 20:29N 40°43' W 073°59'0 0.0
2017-Dec-09 19:58N 40°43' W 073°59'2 4.6
2017-Dec-09 19:30N 40°42' W 074°02'2 3.8
2017-Dec-09 18:57N 40°43' W 073°59'0 0.0
2017-Dec-09 18:30N 40°43' W 073°59'3 5.3
2017-Dec-09 18:00N 40°41' W 074°02'3 4.9
2017-Dec-09 17:29N 40°43' W 073°59'1 2.9
2017-Dec-09 17:00N 40°42' W 074°00'1 0.0
2017-Dec-08 22:07N 40°41' W 074°01'0 1.6
2017-Dec-08 22:00N 40°41' W 074°01'2 3.6
2017-Dec-08 21:29N 40°43' W 073°59'2 4.8
2017-Dec-08 21:01N 40°42' W 074°02'2 4.2
2017-Dec-08 20:28N 40°43' W 073°59'0 0.4
2017-Dec-08 20:00N 40°43' W 073°59'3 5.5
2017-Dec-08 19:30N 40°41' W 074°02'3 3.4
2017-Dec-08 18:45N 40°43' W 073°59'0 0.5
2017-Dec-08 18:30N 40°42' W 073°59'2 4.9
2017-Dec-08 18:00N 40°41' W 074°02'2 4.1
2017-Dec-08 17:25N 40°43' W 073°59'0 0.1
2017-Dec-08 16:55N 40°43' W 073°59'3 5.7
2017-Dec-08 16:28N 40°43' W 074°02'0 0.5
2017-Dec-08 16:00N 40°43' W 074°02'2 0.1
2017-Dec-07 21:58N 40°41' W 074°01'2 4.2
2017-Dec-07 21:29N 40°43' W 073°59'3 6.1
2017-Dec-07 21:00N 40°41' W 074°03'3 5.2
2017-Dec-07 20:26N 40°43' W 073°59'0 0.2
2017-Dec-07 20:01N 40°43' W 073°59'3 5.2
2017-Dec-07 19:30N 40°42' W 074°02'3 4.8
2017-Dec-07 18:59N 40°43' W 073°59'0 0.0
2017-Dec-07 18:28N 40°43' W 073°59'3 6.0
2017-Dec-07 18:00N 40°41' W 074°02'3 5.4
2017-Dec-07 17:30N 40°43' W 073°59'0 0.1
2017-Dec-07 17:01N 40°43' W 073°59'2 3.6
2017-Dec-07 16:28N 40°41' W 074°01'0 0.0
2017-Dec-06 21:53N 40°41' W 074°01'2 5.2
2017-Dec-06 21:29N 40°43' W 073°59'3 6.1
2017-Dec-06 21:00N 40°41' W 074°02'  

Dump ship's entire track history